Nichioh Maru — JD3267 — position and weather

sailwx.info

Track history (hours):
 
Tides and Currents Weather Stations Pressure Air Temp Water Temp Dewpoint Dewpoint Depression Visibility Wind Speed Wind Dir Waves Ship Positions

Nichioh Maru

Last reported at 2018-Apr-22 01:58 UTC. Time now 2018-Apr-22 02:22 UTC.
Position N 34°58' E 136°48'.

Length 170 m; draft 6.5 m.

Type: Cargo ship. MMSI: 431003232.

Date/timePositionNaut miles runAvg speedWind from/ knotsBaromVisibWave heightAir tempDewpointWater temp
2018-Apr-22 01:58N 34°58' E 136°48'0 0.0
2018-Apr-22 01:28N 34°59' E 136°48'0 0.0
2018-Apr-22 00:58N 34°58' E 136°48'0 0.0
2018-Apr-22 00:28N 34°58' E 136°48'0 0.1
2018-Apr-22 00:00N 34°59' E 136°48'4 7.9
2018-Apr-21 23:30N 34°55' E 136°47'612.9
2018-Apr-21 23:00N 34°48' E 136°47'613.0
2018-Apr-21 22:30N 34°42' E 136°50'714.7
2018-Apr-21 22:00N 34°37' E 136°56'612.5
2018-Apr-21 21:31N 34°33' E 137°02'610.8
2018-Apr-21 20:56N 34°32' E 137°09'511.3
2018-Apr-21 20:30N 34°31' E 137°15'814.8
2018-Apr-21 19:59N 34°31' E 137°24'4 7.3
2018-Apr-21 19:29N 34°31' E 137°29'814.7
2018-Apr-21 18:58N 34°32' E 137°38'814.1
2018-Apr-21 18:26N 34°32' E 137°47'714.5
2018-Apr-21 17:59N 34°32' E 137°55'714.6
2018-Apr-21 17:29N 34°32' E 138°04'714.3
2018-Apr-21 17:00N 34°33' E 138°12'814.2
2018-Apr-21 16:28N 34°32' E 138°21'714.7
2018-Apr-21 15:58N 34°32' E 138°30'814.5
2018-Apr-21 15:27N 34°32' E 138°39'614.2
2018-Apr-21 15:01N 34°32' E 138°47'713.8
2018-Apr-21 14:30N 34°32' E 138°56'612.9
2018-Apr-21 14:00N 34°35' E 139°02'713.3
2018-Apr-21 13:30N 34°40' E 139°08'612.5
2018-Apr-21 13:00N 34°45' E 139°13'612.5
2018-Apr-21 12:30N 34°49' E 139°18'612.3
2018-Apr-21 11:59N 34°53' E 139°24'612.0
2018-Apr-21 11:30N 34°57' E 139°30'612.5
2018-Apr-21 11:00N 35°01' E 139°35'713.8
2018-Apr-21 10:30N 35°05' E 139°42'713.6
2018-Apr-21 10:00N 35°11' E 139°46'510.8
2018-Apr-21 09:30N 35°16' E 139°45'714.2
2018-Apr-21 09:00N 35°23' E 139°42'815.6
2018-Apr-21 08:30N 35°30' E 139°48'2 3.1
2018-Apr-21 07:56N 35°30' E 139°46'0 0.0
2018-Apr-21 07:29N 35°30' E 139°46'0 0.0
2018-Apr-21 06:59N 35°30' E 139°46'0 0.0
2018-Apr-21 06:29N 35°30' E 139°46'0 0.0
2018-Apr-21 05:59N 35°30' E 139°46'0 0.0
2018-Apr-21 05:29N 35°30' E 139°46'0 0.0
2018-Apr-21 04:56N 35°30' E 139°46'0 0.0
2018-Apr-21 04:29N 35°30' E 139°46'0 0.0
2018-Apr-21 03:59N 35°30' E 139°46'0 0.0
2018-Apr-21 03:29N 35°30' E 139°46'0 0.5
2018-Apr-21 03:00N 35°30' E 139°46'4 7.9
2018-Apr-21 02:30N 35°27' E 139°43'611.1
2018-Apr-21 02:00N 35°22' E 139°45'611.1
2018-Apr-21 01:31N 35°19' E 139°39'0 0.5
2018-Apr-21 00:59N 35°19' E 139°39'0 0.0
2018-Apr-21 00:29N 35°19' E 139°39'0 0.0
2018-Apr-20 23:59N 35°19' E 139°39'0 0.0
2018-Apr-20 23:29N 35°19' E 139°39'0 0.0
2018-Apr-20 22:59N 35°19' E 139°39'0 0.0
2018-Apr-20 22:29N 35°19' E 139°39'0 0.0
2018-Apr-20 21:59N 35°19' E 139°39'0 0.0
2018-Apr-20 21:29N 35°19' E 139°39'0 0.6
2018-Apr-20 21:00N 35°19' E 139°39'510.1
2018-Apr-20 20:30N 35°17' E 139°45'611.7
2018-Apr-20 20:00N 35°12' E 139°47'815.9
2018-Apr-20 19:30N 35°04' E 139°43'917.3
2018-Apr-20 19:00N 34°58' E 139°36'1118.5
2018-Apr-20 18:24N 34°52' E 139°24'717.9
2018-Apr-20 18:00N 34°47' E 139°18'918.7
2018-Apr-20 17:30N 34°40' E 139°10'1020.3
2018-Apr-20 17:00N 34°33' E 139°02'1019.0
2018-Apr-20 16:28N 34°29' E 138°50'919.9
2018-Apr-20 16:00N 34°27' E 138°39'1219.9
2018-Apr-20 15:23N 34°24' E 138°25'919.5
2018-Apr-20 14:55N 34°22' E 138°14'919.2
2018-Apr-20 14:26N 34°21' E 138°03'1419.6
2018-Apr-20 13:43N 34°18' E 137°46'519.8
2018-Apr-20 13:27N 34°17' E 137°40'919.8
2018-Apr-20 12:58N 34°15' E 137°29'3719.6
2018-Apr-20 11:05N 34°01' E 136°48'320.7
2018-Apr-20 10:56N 33°59' E 136°45'8017.7
2018-Apr-20 06:25N 33°43' E 135°10'921.3
2018-Apr-20 05:59N 33°50' E 135°03'1020.6
2018-Apr-20 05:30N 33°59' E 134°59'1121.3
2018-Apr-20 05:00N 34°09' E 134°58'1121.8
2018-Apr-20 04:30N 34°20' E 134°60'1020.5
2018-Apr-20 04:00N 34°28' E 135°08'918.9
2018-Apr-20 03:30N 34°35' E 135°15'611.0
2018-Apr-20 03:00N 34°41' E 135°13'0 0.0
2018-Apr-20 02:29N 34°41' E 135°13'0 0.0
2018-Apr-20 01:59N 34°41' E 135°13'0 0.0
2018-Apr-20 01:29N 34°41' E 135°13'0 0.0
2018-Apr-20 00:59N 34°41' E 135°13'0 0.0
2018-Apr-20 00:29N 34°41' E 135°13'0 0.0
2018-Apr-19 23:59N 34°41' E 135°13'0 0.0
2018-Apr-19 23:29N 34°41' E 135°13'0 0.0
2018-Apr-19 22:59N 34°41' E 135°13'2 4.1
2018-Apr-19 22:30N 34°40' E 135°15'3 6.8
2018-Apr-19 22:01N 34°36' E 135°16'0 0.1
2018-Apr-19 21:30N 34°36' E 135°16'0 0.0
2018-Apr-19 21:00N 34°36' E 135°16'0 0.0
2018-Apr-19 20:30N 34°36' E 135°16'0 0.0
2018-Apr-19 20:00N 34°36' E 135°16'0 0.0
2018-Apr-19 19:30N 34°36' E 135°16'0 0.0
2018-Apr-19 19:00N 34°36' E 135°16'0 0.0
2018-Apr-19 18:30N 34°36' E 135°16'0 0.0
2018-Apr-19 18:00N 34°36' E 135°16'0 0.0
2018-Apr-19 17:30N 34°36' E 135°16'0 0.1
2018-Apr-19 17:00N 34°36' E 135°16'0 0.1
2018-Apr-19 16:30N 34°36' E 135°16'0 0.0
2018-Apr-19 16:00N 34°36' E 135°16'0 0.0
2018-Apr-19 15:30N 34°36' E 135°16'0 0.0
2018-Apr-19 15:00N 34°36' E 135°16'0 0.0
2018-Apr-19 14:30N 34°36' E 135°16'0 0.0
2018-Apr-19 14:00N 34°36' E 135°16'0 0.0
2018-Apr-19 13:30N 34°36' E 135°16'0 0.0
2018-Apr-19 13:00N 34°36' E 135°16'0 0.0
2018-Apr-19 12:30N 34°36' E 135°16'0 0.0
2018-Apr-19 12:00N 34°36' E 135°16'0 0.0
2018-Apr-19 11:27N 34°36' E 135°16'0 0.0
2018-Apr-19 11:00N 34°36' E 135°16'0 0.1
2018-Apr-19 10:30N 34°36' E 135°17'0 0.0
2018-Apr-19 10:00N 34°36' E 135°17'0 0.1
2018-Apr-19 09:30N 34°36' E 135°16'0 0.0
2018-Apr-19 09:00N 34°36' E 135°16'0 0.0
2018-Apr-19 08:30N 34°36' E 135°16'2 3.3
2018-Apr-19 08:01N 34°36' E 135°14'918.9
2018-Apr-19 07:31N 34°36' E 135°03'1122.2
2018-Apr-19 07:00N 34°33' E 134°50'1121.5
2018-Apr-19 06:30N 34°29' E 134°38'1121.2
2018-Apr-19 06:00N 34°25' E 134°26'1020.7
2018-Apr-19 05:31N 34°24' E 134°14'1017.6
2018-Apr-19 04:55N 34°26' E 134°01'26 2.7
2018-Apr-18 19:10N 34°16' E 133°31'315.0
2018-Apr-18 18:58N 34°15' E 133°27'3413.9
2018-Apr-18 16:32N 34°04' E 132°49'116.9
2018-Apr-18 16:30N 34°03' E 132°49'815.9
2018-Apr-18 16:00N 33°57' E 132°43'1019.0
2018-Apr-18 15:30N 33°51' E 132°34'1118.7
2018-Apr-18 14:56N 33°46' E 132°23'1219.1
2018-Apr-18 14:20N 33°41' E 132°10'619.0
2018-Apr-18 14:00N 33°41' E 132°03'1020.4
2018-Apr-18 13:31N 33°44' E 131°51'1120.2
2018-Apr-18 12:59N 33°46' E 131°39'1020.0
2018-Apr-18 12:30N 33°48' E 131°27'918.7
2018-Apr-18 12:01N 33°48' E 131°16'815.2
2018-Apr-18 11:30N 33°50' E 131°07'712.8
2018-Apr-18 11:00N 33°47' E 131°00'0 0.4
2018-Apr-18 10:28N 33°46' E 131°00'0 0.0
2018-Apr-18 09:58N 33°46' E 131°00'0 0.0
2018-Apr-18 09:28N 33°46' E 131°00'0 0.0
2018-Apr-18 08:58N 33°46' E 131°00'0 0.0
2018-Apr-18 08:28N 33°46' E 131°00'0 0.0
2018-Apr-18 07:58N 33°46' E 131°00'0 0.0
2018-Apr-18 07:30N 33°46' E 131°00'3 6.9
2018-Apr-18 07:00N 33°49' E 131°03'714.2
2018-Apr-18 06:30N 33°49' E 131°12'1019.4
2018-Apr-18 06:00N 33°48' E 131°24'1019.8
2018-Apr-18 05:30N 33°46' E 131°35'1019.2
2018-Apr-18 05:00N 33°46' E 131°47'1019.8
2018-Apr-18 04:30N 33°45' E 131°59'1020.1
2018-Apr-18 04:00N 33°50' E 132°10'1020.7
2018-Apr-18 03:30N 33°50' E 132°22'1019.4
2018-Apr-18 03:00N 33°58' E 132°29'1020.2
2018-Apr-18 02:31N 34°07' E 132°23'918.5
2018-Apr-18 02:00N 34°16' E 132°21'5 9.4
2018-Apr-18 01:29N 34°21' E 132°22'0 0.0
2018-Apr-18 00:58N 34°21' E 132°22'0 0.0
2018-Apr-18 00:28N 34°21' E 132°22'0 0.0
2018-Apr-17 23:55N 34°21' E 132°22'0 0.0
2018-Apr-17 23:19N 34°21' E 132°22'0 0.0
2018-Apr-17 22:55N 34°21' E 132°22'0 0.5
2018-Apr-17 22:31N 34°21' E 132°22'1 1.6
2018-Apr-17 22:00N 34°20' E 132°22'0 0.0
2018-Apr-17 21:30N 34°20' E 132°22'0 0.0
2018-Apr-17 20:59N 34°20' E 132°22'0 0.0
2018-Apr-17 20:29N 34°20' E 132°22'0 0.1
2018-Apr-17 20:00N 34°20' E 132°22'0 0.0
2018-Apr-17 19:30N 34°20' E 132°22'0 0.0
2018-Apr-17 19:00N 34°20' E 132°22'0 0.0
2018-Apr-17 18:30N 34°20' E 132°22'0 0.0
2018-Apr-17 18:00N 34°20' E 132°22'0 0.0
2018-Apr-17 17:30N 34°20' E 132°22'0 0.0
2018-Apr-17 17:00N 34°20' E 132°22'0 0.0
2018-Apr-17 16:26N 34°20' E 132°22'0 0.0
2018-Apr-17 16:00N 34°20' E 132°22'0 0.0
2018-Apr-17 15:30N 34°20' E 132°22'0 0.1
2018-Apr-17 15:00N 34°20' E 132°22'0 0.0
2018-Apr-17 14:29N 34°20' E 132°22'0 0.0
2018-Apr-17 13:59N 34°20' E 132°22'0 0.0
2018-Apr-17 13:30N 34°20' E 132°22'0 0.0
2018-Apr-17 12:56N 34°20' E 132°22'0 0.0
2018-Apr-17 12:29N 34°20' E 132°22'0 0.0
2018-Apr-17 12:00N 34°20' E 132°22'0 0.0
2018-Apr-17 11:30N 34°20' E 132°22'0 0.0
2018-Apr-17 10:59N 34°20' E 132°22'2 4.5
2018-Apr-17 10:30N 34°18' E 132°21'1019.7
2018-Apr-17 10:00N 34°08' E 132°23'1019.3
2018-Apr-17 09:30N 34°02' E 132°31'84 3.0
2018-Apr-16 05:38N 34°26' E 134°08'218.7
2018-Apr-16 05:30N 34°25' E 134°10'918.5
2018-Apr-16 05:00N 34°25' E 134°22'1020.0
2018-Apr-16 04:30N 34°28' E 134°33'1019.7
2018-Apr-16 04:00N 34°32' E 134°44'919.0
2018-Apr-16 03:31N 34°36' E 134°54'816.8
2018-Apr-16 03:00N 34°36' E 135°05'917.8
2018-Apr-16 02:30N 34°38' E 135°15'3 6.4
2018-Apr-16 01:59N 34°41' E 135°13'0 0.0
2018-Apr-16 01:29N 34°41' E 135°13'0 0.0
2018-Apr-16 00:59N 34°41' E 135°13'0 0.0
2018-Apr-16 00:29N 34°41' E 135°13'0 0.0
2018-Apr-15 23:59N 34°41' E 135°13'0 0.0
2018-Apr-15 23:29N 34°41' E 135°13'0 0.0
2018-Apr-15 22:59N 34°41' E 135°13'2 4.2
2018-Apr-15 22:30N 34°40' E 135°15'816.2
2018-Apr-15 22:00N 34°32' E 135°14'816.0
2018-Apr-15 21:31N 34°26' E 135°07'918.5
2018-Apr-15 21:01N 34°18' E 135°00'918.2
2018-Apr-15 20:30N 34°09' E 134°59'1019.9
2018-Apr-15 20:01N 33°59' E 135°00'1019.6
2018-Apr-15 19:31N 33°50' E 135°02'1020.0
2018-Apr-15 19:01N 33°42' E 135°10'1120.3
2018-Apr-15 18:28N 33°34' E 135°19'6617.4
2018-Apr-15 14:40N 33°57' E 136°34'620.9
2018-Apr-15 14:23N 34°00' E 136°39'820.8
2018-Apr-15 14:00N 34°06' E 136°47'1520.1
2018-Apr-15 13:16N 34°16' E 136°59'720.4
2018-Apr-15 12:54N 34°23' E 137°02'819.1
2018-Apr-15 12:30N 34°31' E 137°02'714.4
2018-Apr-15 12:00N 34°38' E 136°59'1018.9
2018-Apr-15 11:30N 34°43' E 137°08'814.1
2018-Apr-15 10:56N 34°44' E 137°18'1 0.3
2018-Apr-15 08:05N 34°44' E 137°19'311.2
2018-Apr-15 07:49N 34°44' E 137°15'414.3
2018-Apr-15 07:30N 34°43' E 137°10'815.7
2018-Apr-15 06:59N 34°39' E 137°01'918.2
2018-Apr-15 06:30N 34°40' E 136°51'1020.2
2018-Apr-15 06:00N 34°50' E 136°46'918.9
2018-Apr-15 05:31N 34°59' E 136°48'611.7
2018-Apr-15 05:00N 35°03' E 136°53'0 0.1
2018-Apr-15 04:30N 35°03' E 136°53'0 0.0
2018-Apr-15 04:00N 35°03' E 136°53'0 0.0
2018-Apr-15 03:30N 35°03' E 136°53'0 0.0
2018-Apr-15 03:00N 35°03' E 136°53'0 0.0
2018-Apr-15 02:30N 35°03' E 136°53'0 0.0
2018-Apr-15 02:00N 35°03' E 136°53'0 0.0
2018-Apr-15 01:30N 35°03' E 136°53'1 1.9
2018-Apr-15 01:01N 35°03' E 136°52'612.2
2018-Apr-15 00:30N 34°58' E 136°48'816.6
2018-Apr-15 00:01N 34°49' E 136°47'917.8
2018-Apr-14 23:30N 34°41' E 136°51'816.5
2018-Apr-14 23:00N 34°35' E 136°58'712.5
2018-Apr-14 22:28N 34°32' E 137°05'817.4
2018-Apr-14 22:00N 34°32' E 137°15'2515.8
2018-Apr-14 20:27N 34°31' E 137°45'1017.2
2018-Apr-14 19:52N 34°31' E 137°57'917.7
2018-Apr-14 19:22N 34°32' E 138°08'618.1
2018-Apr-14 19:00N 34°32' E 138°16'1018.4
2018-Apr-14 18:29N 34°33' E 138°27'918.7
2018-Apr-14 18:00N 34°33' E 138°38'1018.7
2018-Apr-14 17:28N 34°33' E 138°50'817.6
2018-Apr-14 17:00N 34°35' E 138°60'1019.0
2018-Apr-14 16:30N 34°42' E 139°07'1020.0
2018-Apr-14 16:00N 34°50' E 139°15'1018.7
2018-Apr-14 15:30N 34°57' E 139°23'918.7
2018-Apr-14 15:00N 35°02' E 139°32'918.8
2018-Apr-14 14:30N 35°07' E 139°42'815.9
2018-Apr-14 14:00N 35°14' E 139°46'713.1
2018-Apr-14 13:30N 35°20' E 139°43'815.9
2018-Apr-14 13:01N 35°27' E 139°46'3 6.5
2018-Apr-14 12:30N 35°30' E 139°46'0 0.0
2018-Apr-14 11:59N 35°30' E 139°46'0 0.0
2018-Apr-14 11:29N 35°30' E 139°46'0 0.0
2018-Apr-14 10:59N 35°30' E 139°46'0 0.0
2018-Apr-14 10:29N 35°30' E 139°46'0 0.0
2018-Apr-14 09:59N 35°30' E 139°46'0 0.0
2018-Apr-14 09:29N 35°30' E 139°46'0 0.0
2018-Apr-14 08:59N 35°30' E 139°46'0 0.0
2018-Apr-14 08:29N 35°30' E 139°46'0 0.0
2018-Apr-14 07:59N 35°30' E 139°46'0 0.0
2018-Apr-14 07:29N 35°30' E 139°46'0 0.0
2018-Apr-14 06:59N 35°30' E 139°46'0 0.0
2018-Apr-14 06:29N 35°30' E 139°46'0 0.0
2018-Apr-14 05:59N 35°30' E 139°46'0 0.0
2018-Apr-14 05:29N 35°30' E 139°46'0 0.0
2018-Apr-14 04:59N 35°30' E 139°46'0 0.0
2018-Apr-14 04:29N 35°30' E 139°46'0 0.0
2018-Apr-14 03:59N 35°30' E 139°46'0 0.0
2018-Apr-14 03:26N 35°30' E 139°46'1 2.4
2018-Apr-14 03:00N 35°30' E 139°45'4 8.9
2018-Apr-14 02:30N 35°26' E 139°45'611.5
2018-Apr-14 02:00N 35°20' E 139°44'4 8.2
2018-Apr-14 01:30N 35°19' E 139°39'0 0.0
2018-Apr-14 01:00N 35°19' E 139°39'0 0.0
2018-Apr-14 00:30N 35°19' E 139°39'0 0.0
2018-Apr-14 00:00N 35°19' E 139°39'0 0.0
2018-Apr-13 23:30N 35°19' E 139°39'0 0.0
2018-Apr-13 23:00N 35°19' E 139°39'0 0.0
2018-Apr-13 22:30N 35°19' E 139°39'0 0.0
2018-Apr-13 22:00N 35°19' E 139°39'0 0.0
2018-Apr-13 21:30N 35°19' E 139°39'1 1.1
2018-Apr-13 21:00N 35°19' E 139°40'510.9
2018-Apr-13 20:30N 35°17' E 139°46'510.8
2018-Apr-13 20:00N 35°11' E 139°47'1514.8
2018-Apr-13 19:01N 34°59' E 139°37'1019.6
2018-Apr-13 18:29N 34°53' E 139°27'816.6
2018-Apr-13 18:00N 34°48' E 139°19'1019.9
2018-Apr-13 17:30N 34°41' E 139°10'1119.9
2018-Apr-13 16:58N 34°33' E 139°02'1118.7
2018-Apr-13 16:24N 34°28' E 138°50'820.1
2018-Apr-13 16:00N 34°25' E 138°41'1121.1
2018-Apr-13 15:29N 34°21' E 138°29'16719.1
2018-Apr-13 06:43N 33°38' E 135°14'521.5
2018-Apr-13 06:28N 33°42' E 135°10'1021.4
2018-Apr-13 06:00N 33°49' E 135°01'1020.3
2018-Apr-13 05:30N 33°59' E 134°59'1121.4
2018-Apr-13 05:00N 34°10' E 134°59'1122.4
2018-Apr-13 04:31N 34°21' E 134°60'1121.4
2018-Apr-13 04:01N 34°28' E 135°09'918.5
2018-Apr-13 03:30N 34°36' E 135°15'5 9.2
2018-Apr-13 03:00N 34°41' E 135°13'0 0.0
2018-Apr-13 02:30N 34°41' E 135°13'0 0.0
2018-Apr-13 02:00N 34°41' E 135°13'0 0.0
2018-Apr-13 01:30N 34°41' E 135°13'0 0.0
2018-Apr-13 01:00N 34°41' E 135°13'0 0.0
2018-Apr-13 00:30N 34°41' E 135°13'0 0.0
2018-Apr-13 00:00N 34°41' E 135°13'0 0.0
2018-Apr-12 23:30N 34°41' E 135°13'0 0.0
2018-Apr-12 23:00N 34°41' E 135°13'2 4.1
2018-Apr-12 22:30N 34°39' E 135°15'3 5.5
2018-Apr-12 21:58N 34°37' E 135°16'0 0.1
2018-Apr-12 21:28N 34°37' E 135°16'0 0.1
2018-Apr-12 20:58N 34°37' E 135°16'0 0.0
2018-Apr-12 20:28N 34°37' E 135°16'0 0.0
2018-Apr-12 19:58N 34°37' E 135°16'0 0.0
2018-Apr-12 19:28N 34°37' E 135°16'0 0.0
2018-Apr-12 18:58N 34°37' E 135°16'0 0.0
2018-Apr-12 18:28N 34°37' E 135°16'0 0.0
2018-Apr-12 17:58N 34°37' E 135°16'0 0.0
2018-Apr-12 17:28N 34°37' E 135°16'0 0.0
2018-Apr-12 16:58N 34°37' E 135°16'0 0.1
2018-Apr-12 16:28N 34°37' E 135°16'0 0.0
2018-Apr-12 15:58N 34°37' E 135°16'0 0.0
2018-Apr-12 15:28N 34°37' E 135°16'0 0.1
2018-Apr-12 14:58N 34°37' E 135°16'0 0.0
2018-Apr-12 14:28N 34°37' E 135°16'0 0.0
2018-Apr-12 13:58N 34°37' E 135°16'0 0.1
2018-Apr-12 13:28N 34°37' E 135°16'0 0.0
2018-Apr-12 12:58N 34°37' E 135°16'0 0.0
2018-Apr-12 12:28N 34°37' E 135°16'0 0.0
2018-Apr-12 11:58N 34°37' E 135°16'0 0.0
2018-Apr-12 11:28N 34°37' E 135°16'0 0.0
2018-Apr-12 10:58N 34°37' E 135°16'0 0.0
2018-Apr-12 10:28N 34°37' E 135°16'0 0.1
2018-Apr-12 09:58N 34°37' E 135°16'0 0.0
2018-Apr-12 09:28N 34°37' E 135°16'0 0.0
2018-Apr-12 08:58N 34°37' E 135°16'0 0.1
2018-Apr-12 08:28N 34°37' E 135°16'0 0.0
2018-Apr-12 07:58N 34°37' E 135°16'1 1.7
2018-Apr-12 07:30N 34°36' E 135°16'917.4
2018-Apr-12 07:00N 34°34' E 135°06'918.5
2018-Apr-12 06:30N 34°35' E 134°54'1021.0
2018-Apr-12 06:01N 34°31' E 134°43'1020.6
2018-Apr-12 05:31N 34°27' E 134°31'1020.4
2018-Apr-12 05:01N 34°24' E 134°19'  
Track history (hours):
 
Tides and Currents Weather Stations Pressure Air Temp Water Temp Dewpoint Dewpoint Depression Visibility Wind Speed Wind Dir Waves Ship Positions

Nichioh Maru

Last reported at 2018-Apr-22 01:58 UTC. Time now 2018-Apr-22 02:22 UTC.
Position N 34°58' E 136°48'.

Length 170 m; draft 6.5 m.

Type: Cargo ship. MMSI: 431003232.

Date/timePositionNaut miles runAvg speedWind from/ knotsBaromVisibWave heightAir tempDewpointWater temp
2018-Apr-22 01:58N 34°58' E 136°48'0 0.0
2018-Apr-22 01:28N 34°59' E 136°48'0 0.0
2018-Apr-22 00:58N 34°58' E 136°48'0 0.0
2018-Apr-22 00:28N 34°58' E 136°48'0 0.1
2018-Apr-22 00:00N 34°59' E 136°48'4 7.9
2018-Apr-21 23:30N 34°55' E 136°47'612.9
2018-Apr-21 23:00N 34°48' E 136°47'613.0
2018-Apr-21 22:30N 34°42' E 136°50'714.7
2018-Apr-21 22:00N 34°37' E 136°56'612.5
2018-Apr-21 21:31N 34°33' E 137°02'610.8
2018-Apr-21 20:56N 34°32' E 137°09'511.3
2018-Apr-21 20:30N 34°31' E 137°15'814.8
2018-Apr-21 19:59N 34°31' E 137°24'4 7.3
2018-Apr-21 19:29N 34°31' E 137°29'814.7
2018-Apr-21 18:58N 34°32' E 137°38'814.1
2018-Apr-21 18:26N 34°32' E 137°47'714.5
2018-Apr-21 17:59N 34°32' E 137°55'714.6
2018-Apr-21 17:29N 34°32' E 138°04'714.3
2018-Apr-21 17:00N 34°33' E 138°12'814.2
2018-Apr-21 16:28N 34°32' E 138°21'714.7
2018-Apr-21 15:58N 34°32' E 138°30'814.5
2018-Apr-21 15:27N 34°32' E 138°39'614.2
2018-Apr-21 15:01N 34°32' E 138°47'713.8
2018-Apr-21 14:30N 34°32' E 138°56'612.9
2018-Apr-21 14:00N 34°35' E 139°02'713.3
2018-Apr-21 13:30N 34°40' E 139°08'612.5
2018-Apr-21 13:00N 34°45' E 139°13'612.5
2018-Apr-21 12:30N 34°49' E 139°18'612.3
2018-Apr-21 11:59N 34°53' E 139°24'612.0
2018-Apr-21 11:30N 34°57' E 139°30'612.5
2018-Apr-21 11:00N 35°01' E 139°35'713.8
2018-Apr-21 10:30N 35°05' E 139°42'713.6
2018-Apr-21 10:00N 35°11' E 139°46'510.8
2018-Apr-21 09:30N 35°16' E 139°45'714.2
2018-Apr-21 09:00N 35°23' E 139°42'815.6
2018-Apr-21 08:30N 35°30' E 139°48'2 3.1
2018-Apr-21 07:56N 35°30' E 139°46'0 0.0
2018-Apr-21 07:29N 35°30' E 139°46'0 0.0
2018-Apr-21 06:59N 35°30' E 139°46'0 0.0
2018-Apr-21 06:29N 35°30' E 139°46'0 0.0
2018-Apr-21 05:59N 35°30' E 139°46'0 0.0
2018-Apr-21 05:29N 35°30' E 139°46'0 0.0
2018-Apr-21 04:56N 35°30' E 139°46'0 0.0
2018-Apr-21 04:29N 35°30' E 139°46'0 0.0
2018-Apr-21 03:59N 35°30' E 139°46'0 0.0
2018-Apr-21 03:29N 35°30' E 139°46'0 0.5
2018-Apr-21 03:00N 35°30' E 139°46'4 7.9
2018-Apr-21 02:30N 35°27' E 139°43'611.1
2018-Apr-21 02:00N 35°22' E 139°45'611.1
2018-Apr-21 01:31N 35°19' E 139°39'0 0.5
2018-Apr-21 00:59N 35°19' E 139°39'0 0.0
2018-Apr-21 00:29N 35°19' E 139°39'0 0.0
2018-Apr-20 23:59N 35°19' E 139°39'0 0.0
2018-Apr-20 23:29N 35°19' E 139°39'0 0.0
2018-Apr-20 22:59N 35°19' E 139°39'0 0.0
2018-Apr-20 22:29N 35°19' E 139°39'0 0.0
2018-Apr-20 21:59N 35°19' E 139°39'0 0.0
2018-Apr-20 21:29N 35°19' E 139°39'0 0.6
2018-Apr-20 21:00N 35°19' E 139°39'510.1
2018-Apr-20 20:30N 35°17' E 139°45'611.7
2018-Apr-20 20:00N 35°12' E 139°47'815.9
2018-Apr-20 19:30N 35°04' E 139°43'917.3
2018-Apr-20 19:00N 34°58' E 139°36'1118.5
2018-Apr-20 18:24N 34°52' E 139°24'717.9
2018-Apr-20 18:00N 34°47' E 139°18'918.7
2018-Apr-20 17:30N 34°40' E 139°10'1020.3
2018-Apr-20 17:00N 34°33' E 139°02'1019.0
2018-Apr-20 16:28N 34°29' E 138°50'919.9
2018-Apr-20 16:00N 34°27' E 138°39'1219.9
2018-Apr-20 15:23N 34°24' E 138°25'919.5
2018-Apr-20 14:55N 34°22' E 138°14'919.2
2018-Apr-20 14:26N 34°21' E 138°03'1419.6
2018-Apr-20 13:43N 34°18' E 137°46'519.8
2018-Apr-20 13:27N 34°17' E 137°40'919.8
2018-Apr-20 12:58N 34°15' E 137°29'3719.6
2018-Apr-20 11:05N 34°01' E 136°48'320.7
2018-Apr-20 10:56N 33°59' E 136°45'8017.7
2018-Apr-20 06:25N 33°43' E 135°10'921.3
2018-Apr-20 05:59N 33°50' E 135°03'1020.6
2018-Apr-20 05:30N 33°59' E 134°59'1121.3
2018-Apr-20 05:00N 34°09' E 134°58'1121.8
2018-Apr-20 04:30N 34°20' E 134°60'1020.5
2018-Apr-20 04:00N 34°28' E 135°08'918.9
2018-Apr-20 03:30N 34°35' E 135°15'611.0
2018-Apr-20 03:00N 34°41' E 135°13'0 0.0
2018-Apr-20 02:29N 34°41' E 135°13'0 0.0
2018-Apr-20 01:59N 34°41' E 135°13'0 0.0
2018-Apr-20 01:29N 34°41' E 135°13'0 0.0
2018-Apr-20 00:59N 34°41' E 135°13'0 0.0
2018-Apr-20 00:29N 34°41' E 135°13'0 0.0
2018-Apr-19 23:59N 34°41' E 135°13'0 0.0
2018-Apr-19 23:29N 34°41' E 135°13'0 0.0
2018-Apr-19 22:59N 34°41' E 135°13'2 4.1
2018-Apr-19 22:30N 34°40' E 135°15'3 6.8
2018-Apr-19 22:01N 34°36' E 135°16'0 0.1
2018-Apr-19 21:30N 34°36' E 135°16'0 0.0
2018-Apr-19 21:00N 34°36' E 135°16'0 0.0
2018-Apr-19 20:30N 34°36' E 135°16'0 0.0
2018-Apr-19 20:00N 34°36' E 135°16'0 0.0
2018-Apr-19 19:30N 34°36' E 135°16'0 0.0
2018-Apr-19 19:00N 34°36' E 135°16'0 0.0
2018-Apr-19 18:30N 34°36' E 135°16'0 0.0
2018-Apr-19 18:00N 34°36' E 135°16'0 0.0
2018-Apr-19 17:30N 34°36' E 135°16'0 0.1
2018-Apr-19 17:00N 34°36' E 135°16'0 0.1
2018-Apr-19 16:30N 34°36' E 135°16'0 0.0
2018-Apr-19 16:00N 34°36' E 135°16'0 0.0
2018-Apr-19 15:30N 34°36' E 135°16'0 0.0
2018-Apr-19 15:00N 34°36' E 135°16'0 0.0
2018-Apr-19 14:30N 34°36' E 135°16'0 0.0
2018-Apr-19 14:00N 34°36' E 135°16'0 0.0
2018-Apr-19 13:30N 34°36' E 135°16'0 0.0
2018-Apr-19 13:00N 34°36' E 135°16'0 0.0
2018-Apr-19 12:30N 34°36' E 135°16'0 0.0
2018-Apr-19 12:00N 34°36' E 135°16'0 0.0
2018-Apr-19 11:27N 34°36' E 135°16'0 0.0
2018-Apr-19 11:00N 34°36' E 135°16'0 0.1
2018-Apr-19 10:30N 34°36' E 135°17'0 0.0
2018-Apr-19 10:00N 34°36' E 135°17'0 0.1
2018-Apr-19 09:30N 34°36' E 135°16'0 0.0
2018-Apr-19 09:00N 34°36' E 135°16'0 0.0
2018-Apr-19 08:30N 34°36' E 135°16'2 3.3
2018-Apr-19 08:01N 34°36' E 135°14'918.9
2018-Apr-19 07:31N 34°36' E 135°03'1122.2
2018-Apr-19 07:00N 34°33' E 134°50'1121.5
2018-Apr-19 06:30N 34°29' E 134°38'1121.2
2018-Apr-19 06:00N 34°25' E 134°26'1020.7
2018-Apr-19 05:31N 34°24' E 134°14'1017.6
2018-Apr-19 04:55N 34°26' E 134°01'26 2.7
2018-Apr-18 19:10N 34°16' E 133°31'315.0
2018-Apr-18 18:58N 34°15' E 133°27'3413.9
2018-Apr-18 16:32N 34°04' E 132°49'116.9
2018-Apr-18 16:30N 34°03' E 132°49'815.9
2018-Apr-18 16:00N 33°57' E 132°43'1019.0
2018-Apr-18 15:30N 33°51' E 132°34'1118.7
2018-Apr-18 14:56N 33°46' E 132°23'1219.1
2018-Apr-18 14:20N 33°41' E 132°10'619.0
2018-Apr-18 14:00N 33°41' E 132°03'1020.4
2018-Apr-18 13:31N 33°44' E 131°51'1120.2
2018-Apr-18 12:59N 33°46' E 131°39'1020.0
2018-Apr-18 12:30N 33°48' E 131°27'918.7
2018-Apr-18 12:01N 33°48' E 131°16'815.2
2018-Apr-18 11:30N 33°50' E 131°07'712.8
2018-Apr-18 11:00N 33°47' E 131°00'0 0.4
2018-Apr-18 10:28N 33°46' E 131°00'0 0.0
2018-Apr-18 09:58N 33°46' E 131°00'0 0.0
2018-Apr-18 09:28N 33°46' E 131°00'0 0.0
2018-Apr-18 08:58N 33°46' E 131°00'0 0.0
2018-Apr-18 08:28N 33°46' E 131°00'0 0.0
2018-Apr-18 07:58N 33°46' E 131°00'0 0.0
2018-Apr-18 07:30N 33°46' E 131°00'3 6.9
2018-Apr-18 07:00N 33°49' E 131°03'714.2
2018-Apr-18 06:30N 33°49' E 131°12'1019.4
2018-Apr-18 06:00N 33°48' E 131°24'1019.8
2018-Apr-18 05:30N 33°46' E 131°35'1019.2
2018-Apr-18 05:00N 33°46' E 131°47'1019.8
2018-Apr-18 04:30N 33°45' E 131°59'1020.1
2018-Apr-18 04:00N 33°50' E 132°10'1020.7
2018-Apr-18 03:30N 33°50' E 132°22'1019.4
2018-Apr-18 03:00N 33°58' E 132°29'1020.2
2018-Apr-18 02:31N 34°07' E 132°23'918.5
2018-Apr-18 02:00N 34°16' E 132°21'5 9.4
2018-Apr-18 01:29N 34°21' E 132°22'0 0.0
2018-Apr-18 00:58N 34°21' E 132°22'0 0.0
2018-Apr-18 00:28N 34°21' E 132°22'0 0.0
2018-Apr-17 23:55N 34°21' E 132°22'0 0.0
2018-Apr-17 23:19N 34°21' E 132°22'0 0.0
2018-Apr-17 22:55N 34°21' E 132°22'0 0.5
2018-Apr-17 22:31N 34°21' E 132°22'1 1.6
2018-Apr-17 22:00N 34°20' E 132°22'0 0.0
2018-Apr-17 21:30N 34°20' E 132°22'0 0.0
2018-Apr-17 20:59N 34°20' E 132°22'0 0.0
2018-Apr-17 20:29N 34°20' E 132°22'0 0.1
2018-Apr-17 20:00N 34°20' E 132°22'0 0.0
2018-Apr-17 19:30N 34°20' E 132°22'0 0.0
2018-Apr-17 19:00N 34°20' E 132°22'0 0.0
2018-Apr-17 18:30N 34°20' E 132°22'0 0.0
2018-Apr-17 18:00N 34°20' E 132°22'0 0.0
2018-Apr-17 17:30N 34°20' E 132°22'0 0.0
2018-Apr-17 17:00N 34°20' E 132°22'0 0.0
2018-Apr-17 16:26N 34°20' E 132°22'0 0.0
2018-Apr-17 16:00N 34°20' E 132°22'0 0.0
2018-Apr-17 15:30N 34°20' E 132°22'0 0.1
2018-Apr-17 15:00N 34°20' E 132°22'0 0.0
2018-Apr-17 14:29N 34°20' E 132°22'0 0.0
2018-Apr-17 13:59N 34°20' E 132°22'0 0.0
2018-Apr-17 13:30N 34°20' E 132°22'0 0.0
2018-Apr-17 12:56N 34°20' E 132°22'0 0.0
2018-Apr-17 12:29N 34°20' E 132°22'0 0.0
2018-Apr-17 12:00N 34°20' E 132°22'0 0.0
2018-Apr-17 11:30N 34°20' E 132°22'0 0.0
2018-Apr-17 10:59N 34°20' E 132°22'2 4.5
2018-Apr-17 10:30N 34°18' E 132°21'1019.7
2018-Apr-17 10:00N 34°08' E 132°23'1019.3
2018-Apr-17 09:30N 34°02' E 132°31'84 3.0
2018-Apr-16 05:38N 34°26' E 134°08'218.7
2018-Apr-16 05:30N 34°25' E 134°10'918.5
2018-Apr-16 05:00N 34°25' E 134°22'1020.0
2018-Apr-16 04:30N 34°28' E 134°33'1019.7
2018-Apr-16 04:00N 34°32' E 134°44'919.0
2018-Apr-16 03:31N 34°36' E 134°54'816.8
2018-Apr-16 03:00N 34°36' E 135°05'917.8
2018-Apr-16 02:30N 34°38' E 135°15'3 6.4
2018-Apr-16 01:59N 34°41' E 135°13'0 0.0
2018-Apr-16 01:29N 34°41' E 135°13'0 0.0
2018-Apr-16 00:59N 34°41' E 135°13'0 0.0
2018-Apr-16 00:29N 34°41' E 135°13'0 0.0
2018-Apr-15 23:59N 34°41' E 135°13'0 0.0
2018-Apr-15 23:29N 34°41' E 135°13'0 0.0
2018-Apr-15 22:59N 34°41' E 135°13'2 4.2
2018-Apr-15 22:30N 34°40' E 135°15'816.2
2018-Apr-15 22:00N 34°32' E 135°14'816.0
2018-Apr-15 21:31N 34°26' E 135°07'918.5
2018-Apr-15 21:01N 34°18' E 135°00'918.2
2018-Apr-15 20:30N 34°09' E 134°59'1019.9
2018-Apr-15 20:01N 33°59' E 135°00'1019.6
2018-Apr-15 19:31N 33°50' E 135°02'1020.0
2018-Apr-15 19:01N 33°42' E 135°10'1120.3
2018-Apr-15 18:28N 33°34' E 135°19'6617.4
2018-Apr-15 14:40N 33°57' E 136°34'620.9
2018-Apr-15 14:23N 34°00' E 136°39'820.8
2018-Apr-15 14:00N 34°06' E 136°47'1520.1
2018-Apr-15 13:16N 34°16' E 136°59'720.4
2018-Apr-15 12:54N 34°23' E 137°02'819.1
2018-Apr-15 12:30N 34°31' E 137°02'714.4
2018-Apr-15 12:00N 34°38' E 136°59'1018.9
2018-Apr-15 11:30N 34°43' E 137°08'814.1
2018-Apr-15 10:56N 34°44' E 137°18'1 0.3
2018-Apr-15 08:05N 34°44' E 137°19'311.2
2018-Apr-15 07:49N 34°44' E 137°15'414.3
2018-Apr-15 07:30N 34°43' E 137°10'815.7
2018-Apr-15 06:59N 34°39' E 137°01'918.2
2018-Apr-15 06:30N 34°40' E 136°51'1020.2
2018-Apr-15 06:00N 34°50' E 136°46'918.9
2018-Apr-15 05:31N 34°59' E 136°48'611.7
2018-Apr-15 05:00N 35°03' E 136°53'0 0.1
2018-Apr-15 04:30N 35°03' E 136°53'0 0.0
2018-Apr-15 04:00N 35°03' E 136°53'0 0.0
2018-Apr-15 03:30N 35°03' E 136°53'0 0.0
2018-Apr-15 03:00N 35°03' E 136°53'0 0.0
2018-Apr-15 02:30N 35°03' E 136°53'0 0.0
2018-Apr-15 02:00N 35°03' E 136°53'0 0.0
2018-Apr-15 01:30N 35°03' E 136°53'1 1.9
2018-Apr-15 01:01N 35°03' E 136°52'612.2
2018-Apr-15 00:30N 34°58' E 136°48'816.6
2018-Apr-15 00:01N 34°49' E 136°47'917.8
2018-Apr-14 23:30N 34°41' E 136°51'816.5
2018-Apr-14 23:00N 34°35' E 136°58'712.5
2018-Apr-14 22:28N 34°32' E 137°05'817.4
2018-Apr-14 22:00N 34°32' E 137°15'2515.8
2018-Apr-14 20:27N 34°31' E 137°45'1017.2
2018-Apr-14 19:52N 34°31' E 137°57'917.7
2018-Apr-14 19:22N 34°32' E 138°08'618.1
2018-Apr-14 19:00N 34°32' E 138°16'1018.4
2018-Apr-14 18:29N 34°33' E 138°27'918.7
2018-Apr-14 18:00N 34°33' E 138°38'1018.7
2018-Apr-14 17:28N 34°33' E 138°50'817.6
2018-Apr-14 17:00N 34°35' E 138°60'1019.0
2018-Apr-14 16:30N 34°42' E 139°07'1020.0
2018-Apr-14 16:00N 34°50' E 139°15'1018.7
2018-Apr-14 15:30N 34°57' E 139°23'918.7
2018-Apr-14 15:00N 35°02' E 139°32'918.8
2018-Apr-14 14:30N 35°07' E 139°42'815.9
2018-Apr-14 14:00N 35°14' E 139°46'713.1
2018-Apr-14 13:30N 35°20' E 139°43'815.9
2018-Apr-14 13:01N 35°27' E 139°46'3 6.5
2018-Apr-14 12:30N 35°30' E 139°46'0 0.0
2018-Apr-14 11:59N 35°30' E 139°46'0 0.0
2018-Apr-14 11:29N 35°30' E 139°46'0 0.0
2018-Apr-14 10:59N 35°30' E 139°46'0 0.0
2018-Apr-14 10:29N 35°30' E 139°46'0 0.0
2018-Apr-14 09:59N 35°30' E 139°46'0 0.0
2018-Apr-14 09:29N 35°30' E 139°46'0 0.0
2018-Apr-14 08:59N 35°30' E 139°46'0 0.0
2018-Apr-14 08:29N 35°30' E 139°46'0 0.0
2018-Apr-14 07:59N 35°30' E 139°46'0 0.0
2018-Apr-14 07:29N 35°30' E 139°46'0 0.0
2018-Apr-14 06:59N 35°30' E 139°46'0 0.0
2018-Apr-14 06:29N 35°30' E 139°46'0 0.0
2018-Apr-14 05:59N 35°30' E 139°46'0 0.0
2018-Apr-14 05:29N 35°30' E 139°46'0 0.0
2018-Apr-14 04:59N 35°30' E 139°46'0 0.0
2018-Apr-14 04:29N 35°30' E 139°46'0 0.0
2018-Apr-14 03:59N 35°30' E 139°46'0 0.0
2018-Apr-14 03:26N 35°30' E 139°46'1 2.4
2018-Apr-14 03:00N 35°30' E 139°45'4 8.9
2018-Apr-14 02:30N 35°26' E 139°45'611.5
2018-Apr-14 02:00N 35°20' E 139°44'4 8.2
2018-Apr-14 01:30N 35°19' E 139°39'0 0.0
2018-Apr-14 01:00N 35°19' E 139°39'0 0.0
2018-Apr-14 00:30N 35°19' E 139°39'0 0.0
2018-Apr-14 00:00N 35°19' E 139°39'0 0.0
2018-Apr-13 23:30N 35°19' E 139°39'0 0.0
2018-Apr-13 23:00N 35°19' E 139°39'0 0.0
2018-Apr-13 22:30N 35°19' E 139°39'0 0.0
2018-Apr-13 22:00N 35°19' E 139°39'0 0.0
2018-Apr-13 21:30N 35°19' E 139°39'1 1.1
2018-Apr-13 21:00N 35°19' E 139°40'510.9
2018-Apr-13 20:30N 35°17' E 139°46'510.8
2018-Apr-13 20:00N 35°11' E 139°47'1514.8
2018-Apr-13 19:01N 34°59' E 139°37'1019.6
2018-Apr-13 18:29N 34°53' E 139°27'816.6
2018-Apr-13 18:00N 34°48' E 139°19'1019.9
2018-Apr-13 17:30N 34°41' E 139°10'1119.9
2018-Apr-13 16:58N 34°33' E 139°02'1118.7
2018-Apr-13 16:24N 34°28' E 138°50'820.1
2018-Apr-13 16:00N 34°25' E 138°41'1121.1
2018-Apr-13 15:29N 34°21' E 138°29'16719.1
2018-Apr-13 06:43N 33°38' E 135°14'521.5
2018-Apr-13 06:28N 33°42' E 135°10'1021.4
2018-Apr-13 06:00N 33°49' E 135°01'1020.3
2018-Apr-13 05:30N 33°59' E 134°59'1121.4
2018-Apr-13 05:00N 34°10' E 134°59'1122.4
2018-Apr-13 04:31N 34°21' E 134°60'1121.4
2018-Apr-13 04:01N 34°28' E 135°09'918.5
2018-Apr-13 03:30N 34°36' E 135°15'5 9.2
2018-Apr-13 03:00N 34°41' E 135°13'0 0.0
2018-Apr-13 02:30N 34°41' E 135°13'0 0.0
2018-Apr-13 02:00N 34°41' E 135°13'0 0.0
2018-Apr-13 01:30N 34°41' E 135°13'0 0.0
2018-Apr-13 01:00N 34°41' E 135°13'0 0.0
2018-Apr-13 00:30N 34°41' E 135°13'0 0.0
2018-Apr-13 00:00N 34°41' E 135°13'0 0.0
2018-Apr-12 23:30N 34°41' E 135°13'0 0.0
2018-Apr-12 23:00N 34°41' E 135°13'2 4.1
2018-Apr-12 22:30N 34°39' E 135°15'3 5.5
2018-Apr-12 21:58N 34°37' E 135°16'0 0.1
2018-Apr-12 21:28N 34°37' E 135°16'0 0.1
2018-Apr-12 20:58N 34°37' E 135°16'0 0.0
2018-Apr-12 20:28N 34°37' E 135°16'0 0.0
2018-Apr-12 19:58N 34°37' E 135°16'0 0.0
2018-Apr-12 19:28N 34°37' E 135°16'0 0.0
2018-Apr-12 18:58N 34°37' E 135°16'0 0.0
2018-Apr-12 18:28N 34°37' E 135°16'0 0.0
2018-Apr-12 17:58N 34°37' E 135°16'0 0.0
2018-Apr-12 17:28N 34°37' E 135°16'0 0.0
2018-Apr-12 16:58N 34°37' E 135°16'0 0.1
2018-Apr-12 16:28N 34°37' E 135°16'0 0.0
2018-Apr-12 15:58N 34°37' E 135°16'0 0.0
2018-Apr-12 15:28N 34°37' E 135°16'0 0.1
2018-Apr-12 14:58N 34°37' E 135°16'0 0.0
2018-Apr-12 14:28N 34°37' E 135°16'0 0.0
2018-Apr-12 13:58N 34°37' E 135°16'0 0.1
2018-Apr-12 13:28N 34°37' E 135°16'0 0.0
2018-Apr-12 12:58N 34°37' E 135°16'0 0.0
2018-Apr-12 12:28N 34°37' E 135°16'0 0.0
2018-Apr-12 11:58N 34°37' E 135°16'0 0.0
2018-Apr-12 11:28N 34°37' E 135°16'0 0.0
2018-Apr-12 10:58N 34°37' E 135°16'0 0.0
2018-Apr-12 10:28N 34°37' E 135°16'0 0.1
2018-Apr-12 09:58N 34°37' E 135°16'0 0.0
2018-Apr-12 09:28N 34°37' E 135°16'0 0.0
2018-Apr-12 08:58N 34°37' E 135°16'0 0.1
2018-Apr-12 08:28N 34°37' E 135°16'0 0.0
2018-Apr-12 07:58N 34°37' E 135°16'1 1.7
2018-Apr-12 07:30N 34°36' E 135°16'917.4
2018-Apr-12 07:00N 34°34' E 135°06'918.5
2018-Apr-12 06:30N 34°35' E 134°54'1021.0
2018-Apr-12 06:01N 34°31' E 134°43'1020.6
2018-Apr-12 05:31N 34°27' E 134°31'1020.4
2018-Apr-12 05:01N 34°24' E 134°19'  

Dump ship's entire track history